createdAt,value
2023-03-17T00:01:54.175Z,-2.38
2023-03-17T00:04:21.726Z,-2.44
2023-03-17T00:06:48.729Z,-2.48
2023-03-17T00:09:17.416Z,-2.51
2023-03-17T00:11:44.668Z,-2.54
2023-03-17T00:14:11.208Z,-2.53
2023-03-17T00:16:39.091Z,-2.54
2023-03-17T00:19:05.571Z,-2.57
2023-03-17T00:21:33.092Z,-2.58
2023-03-17T00:24:00.354Z,-2.60
2023-03-17T00:26:27.684Z,-2.65
2023-03-17T00:28:55.099Z,-2.65
2023-03-17T00:31:23.553Z,-2.71
2023-03-17T00:33:52.282Z,-2.69
2023-03-17T00:36:20.264Z,-2.65
2023-03-17T00:38:47.113Z,-2.63
2023-03-17T00:41:13.618Z,-2.65
2023-03-17T00:43:41.060Z,-2.69
2023-03-17T00:46:14.921Z,-2.74
2023-03-17T00:48:43.497Z,-2.78
2023-03-17T00:51:11.417Z,-2.80
2023-03-17T00:53:38.247Z,-2.81
2023-03-17T00:56:06.485Z,-2.86
2023-03-17T00:58:34.017Z,-2.92
2023-03-17T01:01:01.029Z,-2.94
2023-03-17T01:03:28.062Z,-2.91
2023-03-17T01:05:56.981Z,-2.91
2023-03-17T01:08:24.028Z,-2.95
2023-03-17T01:10:50.490Z,-2.95
2023-03-17T01:13:17.014Z,-2.89
2023-03-17T01:15:45.529Z,-2.83
2023-03-17T01:18:13.261Z,-2.81
2023-03-17T01:20:40.772Z,-2.84
2023-03-17T01:23:07.238Z,-2.88
2023-03-17T01:25:33.812Z,-2.90
2023-03-17T01:28:00.316Z,-2.89
2023-03-17T01:30:27.562Z,-2.93
2023-03-17T01:32:55.669Z,-2.96
2023-03-17T01:35:23.034Z,-2.96
2023-03-17T01:37:50.592Z,-2.99
2023-03-17T01:40:19.598Z,-3.03
2023-03-17T01:42:54.270Z,-3.08
2023-03-17T01:45:47.233Z,-3.10
2023-03-17T01:48:13.726Z,-3.12
2023-03-17T01:50:41.137Z,-3.12
2023-03-17T01:53:07.617Z,-3.13
2023-03-17T01:55:34.483Z,-3.16
2023-03-17T01:58:01.220Z,-3.23
2023-03-17T02:00:27.732Z,-3.28
2023-03-17T02:02:56.226Z,-3.30
2023-03-17T02:05:27.073Z,-3.29
2023-03-17T02:07:54.498Z,-3.32
2023-03-17T02:10:22.168Z,-3.33
2023-03-17T02:12:50.996Z,-3.36
2023-03-17T02:15:17.477Z,-3.40
2023-03-17T02:17:43.985Z,-3.39
2023-03-17T02:20:17.212Z,-3.37
2023-03-17T02:22:53.865Z,-3.35
2023-03-17T02:25:21.567Z,-3.38
2023-03-17T02:27:50.305Z,-3.40
2023-03-17T02:30:19.188Z,-3.40
2023-03-17T02:32:45.878Z,-3.37
2023-03-17T02:35:13.035Z,-3.39
2023-03-17T02:37:39.916Z,-3.43
2023-03-17T02:40:06.929Z,-3.49
2023-03-17T02:42:34.142Z,-3.51
2023-03-17T02:45:00.604Z,-3.53
2023-03-17T02:47:27.718Z,-3.51
2023-03-17T02:49:54.239Z,-3.52
2023-03-17T02:52:20.888Z,-3.52
2023-03-17T02:54:47.348Z,-3.55
2023-03-17T02:57:13.786Z,-3.55
2023-03-17T02:59:40.417Z,-3.56
2023-03-17T03:02:06.912Z,-3.50
2023-03-17T03:04:33.419Z,-3.52
2023-03-17T03:07:00.438Z,-3.55
2023-03-17T03:09:27.352Z,-3.55
2023-03-17T03:11:53.833Z,-3.51
2023-03-17T03:14:20.303Z,-3.51
2023-03-17T03:16:46.961Z,-3.44
2023-03-17T03:19:13.420Z,-3.49
2023-03-17T03:21:39.976Z,-3.52
2023-03-17T03:24:06.595Z,-3.51
2023-03-17T03:26:33.045Z,-3.49
2023-03-17T03:29:00.366Z,-3.55
2023-03-17T03:31:27.251Z,-3.60
2023-03-17T03:33:54.090Z,-3.52
2023-03-17T03:36:20.653Z,-3.51
2023-03-17T03:38:47.281Z,-3.56
2023-03-17T03:41:14.286Z,-3.64
2023-03-17T03:43:41.425Z,-3.69
2023-03-17T03:46:08.078Z,-3.70
2023-03-17T03:48:34.734Z,-3.71
2023-03-17T03:51:02.048Z,-3.75
2023-03-17T03:53:29.151Z,-3.75
2023-03-17T03:55:56.120Z,-3.78
2023-03-17T03:58:22.596Z,-3.80
2023-03-17T04:00:49.122Z,-3.79
2023-03-17T04:03:16.056Z,-3.71
2023-03-17T04:05:42.886Z,-3.72
2023-03-17T04:08:09.405Z,-3.79
2023-03-17T04:10:35.922Z,-3.85
2023-03-17T04:13:02.351Z,-3.87
2023-03-17T04:15:28.839Z,-3.87
2023-03-17T04:17:55.667Z,-3.90
2023-03-17T04:20:22.264Z,-3.96
2023-03-17T04:22:48.752Z,-3.97
2023-03-17T04:25:15.590Z,-3.97
2023-03-17T04:27:42.484Z,-3.95
2023-03-17T04:30:10.691Z,-3.93
2023-03-17T04:32:37.304Z,-3.90
2023-03-17T04:35:03.920Z,-3.93
2023-03-17T04:37:32.301Z,-3.95
2023-03-17T04:39:59.883Z,-3.99
2023-03-17T04:42:26.628Z,-3.97
2023-03-17T04:44:53.079Z,-3.95
2023-03-17T04:47:19.511Z,-3.90
2023-03-17T04:49:46.175Z,-3.83
2023-03-17T04:52:12.743Z,-3.88
2023-03-17T04:54:39.263Z,-3.90
2023-03-17T04:57:06.018Z,-3.89
2023-03-17T04:59:32.497Z,-3.88
2023-03-17T05:01:58.968Z,-3.87
2023-03-17T05:04:31.649Z,-3.86
2023-03-17T05:06:58.713Z,-3.84
2023-03-17T05:09:25.613Z,-3.76
2023-03-17T05:11:52.223Z,-3.70
2023-03-17T05:14:18.688Z,-3.72
2023-03-17T05:16:47.484Z,-3.77
2023-03-17T05:19:13.981Z,-3.78
2023-03-17T05:21:40.777Z,-3.81
2023-03-17T05:24:07.264Z,-3.79
2023-03-17T05:26:33.726Z,-3.69
2023-03-17T05:29:00.307Z,-3.65
2023-03-17T05:31:26.795Z,-3.68
2023-03-17T05:33:53.609Z,-3.66
2023-03-17T05:36:21.209Z,-3.62
2023-03-17T05:38:47.647Z,-3.62
2023-03-17T05:41:14.107Z,-3.59
2023-03-17T05:43:41.322Z,-3.61
2023-03-17T05:46:08.277Z,-3.60
2023-03-17T05:48:34.927Z,-3.50
2023-03-17T05:51:01.776Z,-3.45
2023-03-17T05:53:28.660Z,-3.45
2023-03-17T05:55:55.271Z,-3.46
2023-03-17T05:58:22.143Z,-3.40
2023-03-17T06:00:48.604Z,-3.40
2023-03-17T06:03:15.202Z,-3.39
2023-03-17T06:05:41.941Z,-3.39
2023-03-17T06:08:08.579Z,-3.41
2023-03-17T06:10:35.279Z,-3.41
2023-03-17T06:13:03.887Z,-3.35
2023-03-17T06:15:31.241Z,-3.31
2023-03-17T06:17:57.907Z,-3.29
2023-03-17T06:20:24.367Z,-3.27
2023-03-17T06:23:03.414Z,-3.22
2023-03-17T06:25:31.163Z,-3.18
2023-03-17T06:27:57.894Z,-3.14
2023-03-17T06:30:24.496Z,-3.15
2023-03-17T06:32:50.989Z,-3.11
2023-03-17T06:35:18.157Z,-3.09
2023-03-17T06:37:44.626Z,-3.05
2023-03-17T06:40:12.643Z,-3.02
2023-03-17T06:42:39.085Z,-3.00
2023-03-17T06:45:05.855Z,-2.97
2023-03-17T06:47:32.316Z,-2.93
2023-03-17T06:49:58.735Z,-2.87
2023-03-17T06:52:25.386Z,-2.81
2023-03-17T06:54:51.991Z,-2.76
2023-03-17T06:57:18.483Z,-2.71
2023-03-17T06:59:45.846Z,-2.62
2023-03-17T07:02:12.780Z,-2.54
2023-03-17T07:04:39.549Z,-2.47
2023-03-17T07:07:06.371Z,-2.39
2023-03-17T07:09:34.363Z,-2.31
2023-03-17T07:12:05.168Z,-2.26
2023-03-17T07:14:32.870Z,-2.21
2023-03-17T07:17:00.003Z,-2.15
2023-03-17T07:19:27.322Z,-2.11
2023-03-17T07:21:55.866Z,-2.02
2023-03-17T07:24:22.708Z,-1.95
2023-03-17T07:26:49.354Z,-1.87
2023-03-17T07:29:16.574Z,-1.78
2023-03-17T07:31:44.107Z,-1.69
2023-03-17T07:34:11.317Z,-1.59
2023-03-17T07:36:37.779Z,-1.49
2023-03-17T07:39:04.455Z,-1.39
2023-03-17T07:41:30.927Z,-1.32
2023-03-17T07:43:57.488Z,-1.22
2023-03-17T07:46:24.217Z,-1.13
2023-03-17T07:48:51.091Z,-1.00
2023-03-17T07:51:19.145Z,-0.91
2023-03-17T07:53:46.463Z,-0.82
2023-03-17T07:56:13.265Z,-0.70
2023-03-17T07:58:40.364Z,-0.56
2023-03-17T08:01:06.941Z,-0.41
2023-03-17T08:03:34.066Z,-0.22
2023-03-17T08:06:00.827Z,-0.12
2023-03-17T08:08:29.611Z,-0.01
2023-03-17T08:11:03.626Z,0.17
2023-03-17T08:13:30.725Z,0.28
2023-03-17T08:15:57.506Z,0.37
2023-03-17T08:18:24.077Z,0.48
2023-03-17T08:20:51.430Z,0.65
2023-03-17T08:23:20.709Z,0.76
2023-03-17T08:25:47.837Z,0.87
2023-03-17T08:28:15.434Z,0.99
2023-03-17T08:30:42.985Z,1.11
2023-03-17T08:33:09.904Z,1.24
2023-03-17T08:35:37.400Z,1.55
2023-03-17T08:38:04.189Z,1.76
2023-03-17T08:40:31.498Z,1.91
2023-03-17T08:42:58.238Z,2.16
2023-03-17T08:45:24.871Z,2.32
2023-03-17T08:47:51.322Z,2.42
2023-03-17T08:50:20.137Z,2.51
2023-03-17T08:52:46.940Z,2.66
2023-03-17T08:55:14.529Z,2.86
2023-03-17T08:57:41.102Z,3.07
2023-03-17T09:00:11.057Z,3.12
2023-03-17T09:02:43.160Z,3.34
2023-03-17T09:05:11.536Z,3.39
2023-03-17T09:07:38.410Z,3.55
2023-03-17T09:10:05.792Z,3.67
2023-03-17T09:12:34.145Z,3.73
2023-03-17T09:15:00.851Z,3.81
2023-03-17T09:17:27.344Z,3.90
2023-03-17T09:19:53.821Z,4.01
2023-03-17T09:22:20.382Z,4.09
2023-03-17T09:24:46.856Z,4.15
2023-03-17T09:27:13.600Z,4.23
2023-03-17T09:29:41.251Z,4.33
2023-03-17T09:32:08.714Z,4.43
2023-03-17T09:34:35.867Z,4.49
2023-03-17T09:37:02.320Z,4.55
2023-03-17T09:39:28.828Z,4.67
2023-03-17T09:41:57.111Z,4.75
2023-03-17T09:44:42.441Z,4.82
2023-03-17T09:47:18.187Z,4.91
2023-03-17T09:49:49.375Z,4.92
2023-03-17T09:52:18.649Z,5.01
2023-03-17T09:54:46.780Z,5.16
2023-03-17T09:57:18.266Z,5.21
2023-03-17T09:59:55.111Z,5.29
2023-03-17T10:02:29.835Z,5.37
2023-03-17T10:04:57.322Z,5.41
2023-03-17T10:07:30.573Z,5.46
2023-03-17T10:10:00.670Z,5.51
2023-03-17T10:12:27.208Z,5.52
2023-03-17T10:14:55.965Z,5.51
2023-03-17T10:17:31.641Z,5.58
2023-03-17T10:20:00.676Z,5.70
2023-03-17T10:22:42.651Z,5.79
2023-03-17T10:25:15.245Z,5.95
2023-03-17T10:27:42.913Z,6.09
2023-03-17T10:30:17.259Z,6.15
2023-03-17T10:32:44.580Z,6.22
2023-03-17T10:35:11.543Z,6.23
2023-03-17T10:37:38.130Z,6.20
2023-03-17T10:40:10.161Z,6.28
2023-03-17T10:42:45.995Z,6.39
2023-03-17T10:45:15.507Z,6.30
2023-03-17T10:47:47.218Z,6.32
2023-03-17T10:50:20.461Z,6.38
2023-03-17T10:52:47.510Z,6.47
2023-03-17T10:55:20.267Z,6.45
2023-03-17T10:57:51.261Z,6.51
2023-03-17T11:00:20.094Z,6.53
2023-03-17T11:02:57.901Z,6.60
2023-03-17T11:05:26.654Z,6.64
2023-03-17T11:08:06.628Z,6.66
2023-03-17T11:10:36.457Z,6.73
2023-03-17T11:13:03.040Z,6.80
2023-03-17T11:15:32.505Z,6.78
2023-03-17T11:18:01.165Z,6.81
2023-03-17T11:20:33.426Z,6.80
2023-03-17T11:22:59.859Z,6.87
2023-03-17T11:25:27.286Z,6.97
2023-03-17T11:28:16.406Z,7.07
2023-03-17T11:30:42.833Z,7.21
2023-03-17T11:33:18.132Z,7.28
2023-03-17T11:35:44.608Z,7.30
2023-03-17T11:38:21.036Z,7.26
2023-03-17T11:40:59.693Z,7.38
2023-03-17T11:43:35.483Z,7.43
2023-03-17T11:46:11.163Z,7.40
2023-03-17T11:48:40.717Z,7.40
2023-03-17T11:51:13.448Z,7.41
2023-03-17T11:53:58.494Z,7.48
2023-03-17T11:56:37.264Z,7.58
2023-03-17T11:59:05.382Z,7.74
2023-03-17T12:02:04.783Z,7.82
2023-03-17T12:04:34.476Z,7.85
2023-03-17T12:07:08.892Z,7.94
2023-03-17T12:09:41.109Z,8.02
2023-03-17T12:12:10.110Z,7.97
2023-03-17T12:14:42.789Z,7.99
2023-03-17T12:17:12.692Z,8.03
2023-03-17T12:19:54.401Z,8.06
2023-03-17T12:22:21.287Z,8.16
2023-03-17T12:24:51.432Z,8.17
2023-03-17T12:27:29.317Z,8.21
2023-03-17T12:29:59.028Z,8.27
2023-03-17T12:32:39.536Z,8.26
2023-03-17T12:35:23.938Z,8.40
2023-03-17T12:37:50.423Z,8.38
2023-03-17T12:40:20.296Z,8.33
2023-03-17T12:43:12.934Z,8.43
2023-03-17T12:45:58.315Z,8.59
2023-03-17T12:48:43.344Z,8.64
2023-03-17T12:51:28.330Z,8.67
2023-03-17T12:53:55.287Z,8.65
2023-03-17T12:56:29.771Z,8.54
2023-03-17T12:59:02.889Z,8.55
2023-03-17T13:01:32.531Z,8.65
2023-03-17T13:04:04.964Z,8.75
2023-03-17T13:06:34.801Z,8.60
2023-03-17T13:09:21.714Z,8.58
2023-03-17T13:11:48.594Z,8.69
2023-03-17T13:14:27.145Z,8.82
2023-03-17T13:17:04.786Z,8.95
2023-03-17T13:19:32.544Z,9.03
2023-03-17T13:22:05.630Z,9.01
2023-03-17T13:24:40.247Z,8.99
2023-03-17T13:27:10.264Z,8.94
2023-03-17T13:29:36.854Z,8.97
2023-03-17T13:32:15.508Z,8.96
2023-03-17T13:34:46.377Z,8.95
2023-03-17T13:37:37.899Z,8.99
2023-03-17T13:40:13.594Z,8.93
2023-03-17T13:42:54.149Z,8.92
2023-03-17T13:45:35.871Z,8.92
2023-03-17T13:48:20.926Z,8.96
2023-03-17T13:50:47.516Z,8.99
2023-03-17T13:53:14.879Z,8.97
2023-03-17T13:55:42.374Z,8.93
2023-03-17T13:58:11.349Z,8.87
2023-03-17T14:00:46.863Z,8.90
2023-03-17T14:03:17.685Z,8.99
2023-03-17T14:05:48.042Z,9.01
2023-03-17T14:08:18.462Z,8.96
2023-03-17T14:10:52.494Z,8.85
2023-03-17T14:13:24.382Z,8.76
2023-03-17T14:15:56.517Z,8.85
2023-03-17T14:18:30.770Z,8.93
2023-03-17T14:20:58.841Z,8.91
2023-03-17T14:23:25.808Z,8.92
2023-03-17T14:25:55.239Z,8.95
2023-03-17T14:28:25.694Z,9.02
2023-03-17T14:30:53.931Z,8.99
2023-03-17T14:33:22.501Z,8.96
2023-03-17T14:35:50.995Z,8.94
2023-03-17T14:38:19.977Z,8.97
2023-03-17T14:40:46.822Z,8.94
2023-03-17T14:43:13.787Z,8.88
2023-03-17T14:45:40.272Z,8.87
2023-03-17T14:48:09.572Z,8.87
2023-03-17T14:50:36.080Z,8.88
2023-03-17T14:53:02.636Z,8.94
2023-03-17T14:55:43.092Z,8.95
2023-03-17T14:58:17.840Z,8.97
2023-03-17T15:00:46.642Z,8.90
2023-03-17T15:03:20.619Z,8.88
2023-03-17T15:05:47.537Z,8.82
2023-03-17T15:08:37.917Z,8.74
2023-03-17T15:11:05.334Z,8.73
2023-03-17T15:13:38.007Z,8.74
2023-03-17T15:16:15.172Z,8.72
2023-03-17T15:18:41.739Z,8.67
2023-03-17T15:21:31.628Z,8.68
2023-03-17T15:23:58.064Z,8.66
2023-03-17T15:26:31.239Z,8.71
2023-03-17T15:28:58.700Z,8.66
2023-03-17T15:31:29.407Z,8.52
2023-03-17T15:33:56.821Z,8.40
2023-03-17T15:36:32.324Z,8.31
2023-03-17T15:38:59.437Z,8.27
2023-03-17T15:41:26.160Z,8.26
2023-03-17T15:43:53.696Z,8.29
2023-03-17T15:46:27.643Z,8.34
2023-03-17T15:48:54.224Z,8.36
2023-03-17T15:51:20.951Z,8.31
2023-03-17T15:53:47.447Z,8.29
2023-03-17T15:56:19.093Z,8.28
2023-03-17T15:58:49.357Z,8.27
2023-03-17T16:01:16.564Z,8.16
2023-03-17T16:03:45.467Z,7.96
2023-03-17T16:06:15.616Z,7.86
2023-03-17T16:08:42.143Z,7.82
2023-03-17T16:11:19.265Z,7.78
2023-03-17T16:13:46.995Z,7.71
2023-03-17T16:16:21.521Z,7.65
2023-03-17T16:18:49.052Z,7.57
2023-03-17T16:21:17.090Z,7.48
2023-03-17T16:23:43.799Z,7.37
2023-03-17T16:26:15.962Z,7.24
2023-03-17T16:28:44.622Z,7.11
2023-03-17T16:31:19.320Z,6.99
2023-03-17T16:33:46.317Z,6.87
2023-03-17T16:36:14.387Z,6.76
2023-03-17T16:38:40.943Z,6.64
2023-03-17T16:41:09.234Z,6.52
2023-03-17T16:43:37.895Z,6.39
2023-03-17T16:46:05.722Z,6.28
2023-03-17T16:48:32.311Z,6.21
2023-03-17T16:50:58.945Z,6.09
2023-03-17T16:53:25.690Z,5.97
2023-03-17T16:55:53.509Z,5.84
2023-03-17T16:58:19.979Z,5.59
2023-03-17T17:00:47.561Z,5.47
2023-03-17T17:03:14.544Z,5.36
2023-03-17T17:05:41.568Z,5.31
2023-03-17T17:08:08.435Z,5.21
2023-03-17T17:10:35.585Z,5.15
2023-03-17T17:13:02.973Z,5.06
2023-03-17T17:15:30.503Z,4.97
2023-03-17T17:17:58.119Z,4.88
2023-03-17T17:20:28.659Z,4.84
2023-03-17T17:22:55.473Z,4.73
2023-03-17T17:25:22.044Z,4.65
2023-03-17T17:27:48.516Z,4.63
2023-03-17T17:30:16.598Z,4.53
2023-03-17T17:32:43.211Z,4.39
2023-03-17T17:35:10.348Z,4.30
2023-03-17T17:37:36.809Z,4.25
2023-03-17T17:40:03.877Z,4.16
2023-03-17T17:42:30.614Z,4.09
2023-03-17T17:44:57.354Z,4.06
2023-03-17T17:47:23.853Z,4.03
2023-03-17T17:49:50.530Z,3.96
2023-03-17T17:52:18.146Z,3.93
2023-03-17T17:54:44.878Z,3.90
2023-03-17T17:57:12.514Z,3.85
2023-03-17T17:59:38.945Z,3.80
2023-03-17T18:02:05.635Z,3.73
2023-03-17T18:04:32.153Z,3.69
2023-03-17T18:06:58.615Z,3.68
2023-03-17T18:09:25.108Z,3.61
2023-03-17T18:11:51.550Z,3.53
2023-03-17T18:14:18.035Z,3.47
2023-03-17T18:16:44.521Z,3.39
2023-03-17T18:19:11.592Z,3.31
2023-03-17T18:21:38.076Z,3.27
2023-03-17T18:24:04.866Z,3.24
2023-03-17T18:26:31.804Z,3.18
2023-03-17T18:28:58.593Z,3.16
2023-03-17T18:31:27.844Z,3.13
2023-03-17T18:33:57.173Z,3.07
2023-03-17T18:36:23.835Z,3.03
2023-03-17T18:38:50.870Z,2.96
2023-03-17T18:41:17.794Z,2.91
2023-03-17T18:43:44.988Z,2.84
2023-03-17T18:46:12.896Z,2.76
2023-03-17T18:48:40.127Z,2.70
2023-03-17T18:51:06.951Z,2.63
2023-03-17T18:53:34.671Z,2.61
2023-03-17T18:56:01.724Z,2.60
2023-03-17T18:58:28.801Z,2.57
2023-03-17T19:00:59.749Z,2.59
2023-03-17T19:03:27.458Z,2.55
2023-03-17T19:05:54.521Z,2.53
2023-03-17T19:08:21.423Z,2.44
2023-03-17T19:10:48.303Z,2.37
2023-03-17T19:13:15.250Z,2.36
2023-03-17T19:15:42.212Z,2.32
2023-03-17T19:18:08.704Z,2.31
2023-03-17T19:20:36.341Z,2.30
2023-03-17T19:23:04.698Z,2.27
2023-03-17T19:25:31.621Z,2.19
2023-03-17T19:27:59.117Z,2.12
2023-03-17T19:30:25.754Z,2.06
2023-03-17T19:32:52.180Z,2.00
2023-03-17T19:35:18.732Z,1.96
2023-03-17T19:37:45.236Z,1.95
2023-03-17T19:40:13.334Z,1.89
2023-03-17T19:42:39.927Z,1.84
2023-03-17T19:45:06.671Z,1.79
2023-03-17T19:47:33.098Z,1.75
2023-03-17T19:49:59.606Z,1.75
2023-03-17T19:52:26.159Z,1.70
2023-03-17T19:54:52.771Z,1.67
2023-03-17T19:57:20.913Z,1.66
2023-03-17T19:59:47.474Z,1.62
2023-03-17T20:02:15.104Z,1.58
2023-03-17T20:04:41.566Z,1.53
2023-03-17T20:07:08.453Z,1.48
2023-03-17T20:09:37.822Z,1.42
2023-03-17T20:12:04.998Z,1.40
2023-03-17T20:14:32.045Z,1.38
2023-03-17T20:16:58.553Z,1.35
2023-03-17T20:19:25.231Z,1.32
2023-03-17T20:21:52.554Z,1.32
2023-03-17T20:24:19.196Z,1.29
2023-03-17T20:26:45.899Z,1.22
2023-03-17T20:29:14.435Z,1.17
2023-03-17T20:31:41.998Z,1.13
2023-03-17T20:34:10.088Z,1.07
2023-03-17T20:36:37.483Z,1.05
2023-03-17T20:39:04.686Z,1.02
2023-03-17T20:41:31.362Z,1.02
2023-03-17T20:43:58.952Z,0.99
2023-03-17T20:46:25.859Z,0.93
2023-03-17T20:48:58.529Z,0.86
2023-03-17T20:51:26.206Z,0.81
2023-03-17T20:53:53.539Z,0.79
2023-03-17T20:56:22.288Z,0.78
2023-03-17T20:58:48.961Z,0.75
2023-03-17T21:01:18.235Z,0.71
2023-03-17T21:03:46.241Z,0.64
2023-03-17T21:06:12.863Z,0.61
2023-03-17T21:08:39.365Z,0.60
2023-03-17T21:11:06.785Z,0.57
2023-03-17T21:13:33.554Z,0.55
2023-03-17T21:16:01.476Z,0.50
2023-03-17T21:18:28.681Z,0.43
2023-03-17T21:20:55.607Z,0.38
2023-03-17T21:23:23.165Z,0.39
2023-03-17T21:25:55.276Z,0.38
2023-03-17T21:28:22.760Z,0.35
2023-03-17T21:30:49.921Z,0.32
2023-03-17T21:33:16.420Z,0.27
2023-03-17T21:35:43.238Z,0.23
2023-03-17T21:38:09.847Z,0.22
2023-03-17T21:40:36.420Z,0.19
2023-03-17T21:43:03.037Z,0.15
2023-03-17T21:45:29.572Z,0.13
2023-03-17T21:47:56.842Z,0.09
2023-03-17T21:50:23.349Z,0.05
2023-03-17T21:52:50.017Z,0.02
2023-03-17T21:55:16.582Z,-0.01
2023-03-17T21:57:43.245Z,-0.01
2023-03-17T22:00:10.496Z,-0.02
2023-03-17T22:02:37.196Z,-0.06
2023-03-17T22:05:04.436Z,-0.13
2023-03-17T22:07:31.637Z,-0.18
2023-03-17T22:09:58.324Z,-0.22
2023-03-17T22:12:24.798Z,-0.27
2023-03-17T22:14:51.370Z,-0.27
2023-03-17T22:17:17.805Z,-0.30
2023-03-17T22:19:44.309Z,-0.34
2023-03-17T22:22:11.315Z,-0.32
2023-03-17T22:24:40.985Z,-0.34
2023-03-17T22:27:07.519Z,-0.33
2023-03-17T22:29:34.040Z,-0.31
2023-03-17T22:32:01.391Z,-0.31
2023-03-17T22:34:28.070Z,-0.33
2023-03-17T22:36:54.519Z,-0.35
2023-03-17T22:39:20.996Z,-0.36
2023-03-17T22:41:47.451Z,-0.41
2023-03-17T22:44:14.217Z,-0.42
2023-03-17T22:46:41.360Z,-0.46
2023-03-17T22:49:07.887Z,-0.49
2023-03-17T22:51:34.624Z,-0.56
2023-03-17T22:54:01.208Z,-0.56
2023-03-17T22:56:27.685Z,-0.57
2023-03-17T22:58:54.472Z,-0.58
2023-03-17T23:01:22.537Z,-0.61
2023-03-17T23:03:49.397Z,-0.64
2023-03-17T23:06:16.196Z,-0.67
2023-03-17T23:08:43.284Z,-0.69
2023-03-17T23:11:11.678Z,-0.70
2023-03-17T23:13:39.809Z,-0.70
2023-03-17T23:16:06.561Z,-0.76
2023-03-17T23:18:32.995Z,-0.74
2023-03-17T23:20:59.555Z,-0.74
2023-03-17T23:23:26.036Z,-0.79
2023-03-17T23:25:52.678Z,-0.84
2023-03-17T23:28:19.520Z,-0.87
2023-03-17T23:30:47.350Z,-0.87
2023-03-17T23:33:14.461Z,-0.93
2023-03-17T23:35:41.007Z,-0.95
2023-03-17T23:38:08.720Z,-0.93
2023-03-17T23:40:36.072Z,-0.97
2023-03-17T23:43:02.520Z,-1.01
2023-03-17T23:45:28.996Z,-0.99
2023-03-17T23:47:57.387Z,-1.03
2023-03-17T23:50:23.862Z,-0.99
2023-03-17T23:52:50.356Z,-0.94
2023-03-17T23:55:17.445Z,-0.93
2023-03-17T23:57:44.879Z,-0.91
